sensor_id;sensor_type;location;lat;lon;timestamp;temperature;humidity
15455;DHT22;21057;51.024;7.540;2023-03-21T00:00:46;10.40;99.90
15455;DHT22;21057;51.024;7.540;2023-03-21T00:03:15;10.40;99.90
15455;DHT22;21057;51.024;7.540;2023-03-21T00:05:43;10.30;99.90
15455;DHT22;21057;51.024;7.540;2023-03-21T00:08:24;10.30;99.90
15455;DHT22;21057;51.024;7.540;2023-03-21T00:10:55;10.40;99.90
15455;DHT22;21057;51.024;7.540;2023-03-21T00:13:22;10.20;99.90
15455;DHT22;21057;51.024;7.540;2023-03-21T00:15:51;10.20;99.90
15455;DHT22;21057;51.024;7.540;2023-03-21T00:18:19;10.10;99.90
15455;DHT22;21057;51.024;7.540;2023-03-21T00:20:56;10.10;99.90
15455;DHT22;21057;51.024;7.540;2023-03-21T00:23:26;10.20;99.90
15455;DHT22;21057;51.024;7.540;2023-03-21T00:25:53;10.20;99.90
15455;DHT22;21057;51.024;7.540;2023-03-21T00:28:21;10.10;99.90
15455;DHT22;21057;51.024;7.540;2023-03-21T00:30:48;10.10;99.90
15455;DHT22;21057;51.024;7.540;2023-03-21T00:33:15;10.10;99.90
15455;DHT22;21057;51.024;7.540;2023-03-21T00:35:45;10.00;99.90
15455;DHT22;21057;51.024;7.540;2023-03-21T00:38:32;10.00;99.90
15455;DHT22;21057;51.024;7.540;2023-03-21T00:41:06;10.00;99.90
15455;DHT22;21057;51.024;7.540;2023-03-21T00:43:33;10.00;99.90
15455;DHT22;21057;51.024;7.540;2023-03-21T00:46:03;9.90;99.90
15455;DHT22;21057;51.024;7.540;2023-03-21T00:48:29;9.90;99.90
15455;DHT22;21057;51.024;7.540;2023-03-21T00:50:57;9.90;99.90
15455;DHT22;21057;51.024;7.540;2023-03-21T00:53:26;9.90;99.90
15455;DHT22;21057;51.024;7.540;2023-03-21T00:55:54;10.00;99.90
15455;DHT22;21057;51.024;7.540;2023-03-21T00:58:21;10.00;99.90
15455;DHT22;21057;51.024;7.540;2023-03-21T01:00:57;10.00;99.90
15455;DHT22;21057;51.024;7.540;2023-03-21T01:03:33;10.00;99.90
15455;DHT22;21057;51.024;7.540;2023-03-21T01:06:08;10.10;99.90
15455;DHT22;21057;51.024;7.540;2023-03-21T01:08:39;10.00;99.90
15455;DHT22;21057;51.024;7.540;2023-03-21T01:11:12;10.00;99.90
15455;DHT22;21057;51.024;7.540;2023-03-21T01:13:40;10.00;99.90
15455;DHT22;21057;51.024;7.540;2023-03-21T01:16:13;10.10;99.90
15455;DHT22;21057;51.024;7.540;2023-03-21T01:18:41;10.20;99.90
15455;DHT22;21057;51.024;7.540;2023-03-21T01:21:11;10.30;99.90
15455;DHT22;21057;51.024;7.540;2023-03-21T01:23:39;10.40;99.90
15455;DHT22;21057;51.024;7.540;2023-03-21T01:26:10;10.20;99.90
15455;DHT22;21057;51.024;7.540;2023-03-21T01:28:38;10.10;99.90
15455;DHT22;21057;51.024;7.540;2023-03-21T01:31:06;10.20;99.90
15455;DHT22;21057;51.024;7.540;2023-03-21T01:33:43;10.20;99.90
15455;DHT22;21057;51.024;7.540;2023-03-21T01:36:14;10.10;99.90
15455;DHT22;21057;51.024;7.540;2023-03-21T01:38:41;10.10;99.90
15455;DHT22;21057;51.024;7.540;2023-03-21T01:41:19;10.10;99.90
15455;DHT22;21057;51.024;7.540;2023-03-21T01:43:47;10.10;99.90
15455;DHT22;21057;51.024;7.540;2023-03-21T01:46:35;10.10;99.90
15455;DHT22;21057;51.024;7.540;2023-03-21T01:49:07;10.00;99.90
15455;DHT22;21057;51.024;7.540;2023-03-21T01:51:39;10.10;99.90
15455;DHT22;21057;51.024;7.540;2023-03-21T01:54:11;10.10;99.90
15455;DHT22;21057;51.024;7.540;2023-03-21T01:56:42;10.00;99.90
15455;DHT22;21057;51.024;7.540;2023-03-21T01:59:15;10.00;99.90
15455;DHT22;21057;51.024;7.540;2023-03-21T02:01:46;10.00;99.90
15455;DHT22;21057;51.024;7.540;2023-03-21T02:04:14;10.00;99.90
15455;DHT22;21057;51.024;7.540;2023-03-21T02:06:57;10.10;99.90
15455;DHT22;21057;51.024;7.540;2023-03-21T02:09:29;10.00;99.90
15455;DHT22;21057;51.024;7.540;2023-03-21T02:11:59;10.00;99.90
15455;DHT22;21057;51.024;7.540;2023-03-21T02:14:27;10.00;99.90
15455;DHT22;21057;51.024;7.540;2023-03-21T02:17:02;10.00;99.90
15455;DHT22;21057;51.024;7.540;2023-03-21T02:20:08;10.10;99.90
15455;DHT22;21057;51.024;7.540;2023-03-21T02:23:04;10.00;99.90
15455;DHT22;21057;51.024;7.540;2023-03-21T02:28:46;10.00;99.90
15455;DHT22;21057;51.024;7.540;2023-03-21T02:31:23;10.10;99.90
15455;DHT22;21057;51.024;7.540;2023-03-21T02:34:17;10.10;99.90
15455;DHT22;21057;51.024;7.540;2023-03-21T02:37:03;10.20;99.90
15455;DHT22;21057;51.024;7.540;2023-03-21T02:39:49;10.30;99.90
15455;DHT22;21057;51.024;7.540;2023-03-21T02:42:22;10.40;99.90
15455;DHT22;21057;51.024;7.540;2023-03-21T02:45:02;10.30;99.90
15455;DHT22;21057;51.024;7.540;2023-03-21T02:47:34;10.30;99.90
15455;DHT22;21057;51.024;7.540;2023-03-21T02:50:09;10.10;99.90
15455;DHT22;21057;51.024;7.540;2023-03-21T02:52:41;10.10;99.90
15455;DHT22;21057;51.024;7.540;2023-03-21T02:55:12;10.10;99.90
15455;DHT22;21057;51.024;7.540;2023-03-21T02:57:42;10.00;99.90
15455;DHT22;21057;51.024;7.540;2023-03-21T03:00:14;10.00;99.90
15455;DHT22;21057;51.024;7.540;2023-03-21T03:02:42;9.90;99.90
15455;DHT22;21057;51.024;7.540;2023-03-21T03:05:13;9.80;99.90
15455;DHT22;21057;51.024;7.540;2023-03-21T03:07:51;9.80;99.90
15455;DHT22;21057;51.024;7.540;2023-03-21T03:10:32;9.90;99.90
15455;DHT22;21057;51.024;7.540;2023-03-21T03:13:18;9.80;99.90
15455;DHT22;21057;51.024;7.540;2023-03-21T03:15:55;9.90;99.90
15455;DHT22;21057;51.024;7.540;2023-03-21T03:18:35;9.70;99.90
15455;DHT22;21057;51.024;7.540;2023-03-21T03:21:13;9.70;99.90
15455;DHT22;21057;51.024;7.540;2023-03-21T03:23:52;9.70;99.90
15455;DHT22;21057;51.024;7.540;2023-03-21T03:26:24;9.70;99.90
15455;DHT22;21057;51.024;7.540;2023-03-21T03:28:55;9.90;99.90
15455;DHT22;21057;51.024;7.540;2023-03-21T03:31:27;9.90;99.90
15455;DHT22;21057;51.024;7.540;2023-03-21T03:33:59;9.80;99.90
15455;DHT22;21057;51.024;7.540;2023-03-21T03:36:30;9.90;99.90
15455;DHT22;21057;51.024;7.540;2023-03-21T03:39:06;9.90;99.90
15455;DHT22;21057;51.024;7.540;2023-03-21T03:41:46;9.90;99.90
15455;DHT22;21057;51.024;7.540;2023-03-21T03:44:14;10.10;99.90
15455;DHT22;21057;51.024;7.540;2023-03-21T03:46:46;10.00;99.90
15455;DHT22;21057;51.024;7.540;2023-03-21T03:49:23;9.90;99.90
15455;DHT22;21057;51.024;7.540;2023-03-21T03:51:54;9.90;99.90
15455;DHT22;21057;51.024;7.540;2023-03-21T03:54:36;9.80;99.90
15455;DHT22;21057;51.024;7.540;2023-03-21T03:57:04;9.80;99.90
15455;DHT22;21057;51.024;7.540;2023-03-21T03:59:35;9.80;99.90
15455;DHT22;21057;51.024;7.540;2023-03-21T04:02:02;9.80;99.90
15455;DHT22;21057;51.024;7.540;2023-03-21T04:04:29;9.60;99.90
15455;DHT22;21057;51.024;7.540;2023-03-21T04:06:56;9.70;99.90
15455;DHT22;21057;51.024;7.540;2023-03-21T04:09:24;9.60;99.90
15455;DHT22;21057;51.024;7.540;2023-03-21T04:11:56;9.60;99.90
15455;DHT22;21057;51.024;7.540;2023-03-21T04:14:24;9.60;99.90
15455;DHT22;21057;51.024;7.540;2023-03-21T04:16:51;9.50;99.90
15455;DHT22;21057;51.024;7.540;2023-03-21T04:19:38;9.60;99.90
15455;DHT22;21057;51.024;7.540;2023-03-21T04:22:12;9.50;99.90
15455;DHT22;21057;51.024;7.540;2023-03-21T04:24:40;9.40;99.90
15455;DHT22;21057;51.024;7.540;2023-03-21T04:27:08;9.40;99.90
15455;DHT22;21057;51.024;7.540;2023-03-21T04:29:35;9.40;99.90
15455;DHT22;21057;51.024;7.540;2023-03-21T04:32:02;9.30;99.90
15455;DHT22;21057;51.024;7.540;2023-03-21T04:34:29;9.30;99.90
15455;DHT22;21057;51.024;7.540;2023-03-21T04:36:56;9.50;99.90
15455;DHT22;21057;51.024;7.540;2023-03-21T04:39:23;9.40;99.90
15455;DHT22;21057;51.024;7.540;2023-03-21T04:41:52;9.30;99.90
15455;DHT22;21057;51.024;7.540;2023-03-21T04:44:20;9.30;99.90
15455;DHT22;21057;51.024;7.540;2023-03-21T04:46:47;9.30;99.90
15455;DHT22;21057;51.024;7.540;2023-03-21T04:49:14;9.30;99.90
15455;DHT22;21057;51.024;7.540;2023-03-21T04:51:43;9.30;99.90
15455;DHT22;21057;51.024;7.540;2023-03-21T04:54:10;9.20;99.90
15455;DHT22;21057;51.024;7.540;2023-03-21T04:56:38;9.20;99.90
15455;DHT22;21057;51.024;7.540;2023-03-21T04:59:08;9.30;99.90
15455;DHT22;21057;51.024;7.540;2023-03-21T05:01:37;9.30;99.90
15455;DHT22;21057;51.024;7.540;2023-03-21T05:04:09;9.30;99.90
15455;DHT22;21057;51.024;7.540;2023-03-21T05:06:37;9.30;99.90
15455;DHT22;21057;51.024;7.540;2023-03-21T05:09:04;9.30;99.90
15455;DHT22;21057;51.024;7.540;2023-03-21T05:11:36;9.30;99.90
15455;DHT22;21057;51.024;7.540;2023-03-21T05:14:03;9.30;99.90
15455;DHT22;21057;51.024;7.540;2023-03-21T05:16:41;9.20;99.90
15455;DHT22;21057;51.024;7.540;2023-03-21T05:19:10;9.30;99.90
15455;DHT22;21057;51.024;7.540;2023-03-21T05:21:39;9.30;99.90
15455;DHT22;21057;51.024;7.540;2023-03-21T05:24:07;9.20;99.90
15455;DHT22;21057;51.024;7.540;2023-03-21T05:26:38;9.20;99.90
15455;DHT22;21057;51.024;7.540;2023-03-21T05:29:08;9.20;99.90
15455;DHT22;21057;51.024;7.540;2023-03-21T05:31:45;9.20;99.90
15455;DHT22;21057;51.024;7.540;2023-03-21T05:34:12;9.30;99.90
15455;DHT22;21057;51.024;7.540;2023-03-21T05:36:39;9.30;99.90
15455;DHT22;21057;51.024;7.540;2023-03-21T05:39:12;9.20;99.90
15455;DHT22;21057;51.024;7.540;2023-03-21T05:41:53;9.20;99.90
15455;DHT22;21057;51.024;7.540;2023-03-21T05:44:20;9.30;99.90
15455;DHT22;21057;51.024;7.540;2023-03-21T05:46:48;9.30;99.90
15455;DHT22;21057;51.024;7.540;2023-03-21T05:49:15;9.40;99.90
15455;DHT22;21057;51.024;7.540;2023-03-21T05:51:41;9.40;99.90
15455;DHT22;21057;51.024;7.540;2023-03-21T05:54:09;9.50;99.90
15455;DHT22;21057;51.024;7.540;2023-03-21T05:56:41;9.50;99.90
15455;DHT22;21057;51.024;7.540;2023-03-21T05:59:11;9.50;99.90
15455;DHT22;21057;51.024;7.540;2023-03-21T06:01:38;9.50;99.90
15455;DHT22;21057;51.024;7.540;2023-03-21T06:04:06;9.60;99.90
15455;DHT22;21057;51.024;7.540;2023-03-21T06:06:33;9.60;99.90
15455;DHT22;21057;51.024;7.540;2023-03-21T06:09:00;9.70;99.90
15455;DHT22;21057;51.024;7.540;2023-03-21T06:11:28;9.70;99.90
15455;DHT22;21057;51.024;7.540;2023-03-21T06:13:56;9.80;99.90
15455;DHT22;21057;51.024;7.540;2023-03-21T06:16:23;9.90;99.90
15455;DHT22;21057;51.024;7.540;2023-03-21T06:18:50;10.00;99.90
15455;DHT22;21057;51.024;7.540;2023-03-21T06:21:18;10.10;99.90
15455;DHT22;21057;51.024;7.540;2023-03-21T06:23:45;10.00;99.90
15455;DHT22;21057;51.024;7.540;2023-03-21T06:26:31;10.10;99.90
15455;DHT22;21057;51.024;7.540;2023-03-21T06:29:18;10.30;99.90
15455;DHT22;21057;51.024;7.540;2023-03-21T06:31:44;10.40;99.90
15455;DHT22;21057;51.024;7.540;2023-03-21T06:34:11;10.40;99.90
15455;DHT22;21057;51.024;7.540;2023-03-21T06:36:39;10.50;99.90
15455;DHT22;21057;51.024;7.540;2023-03-21T06:39:09;10.40;99.90
15455;DHT22;21057;51.024;7.540;2023-03-21T06:41:36;10.50;99.90
15455;DHT22;21057;51.024;7.540;2023-03-21T06:44:03;10.60;99.90
15455;DHT22;21057;51.024;7.540;2023-03-21T06:46:30;10.90;99.90
15455;DHT22;21057;51.024;7.540;2023-03-21T06:48:57;10.90;99.90
15455;DHT22;21057;51.024;7.540;2023-03-21T06:51:24;10.80;99.90
15455;DHT22;21057;51.024;7.540;2023-03-21T06:53:53;10.70;99.90
15455;DHT22;21057;51.024;7.540;2023-03-21T06:56:23;10.70;99.90
15455;DHT22;21057;51.024;7.540;2023-03-21T06:58:50;11.00;99.90
15455;DHT22;21057;51.024;7.540;2023-03-21T07:01:18;11.00;99.90
15455;DHT22;21057;51.024;7.540;2023-03-21T07:03:45;10.90;99.90
15455;DHT22;21057;51.024;7.540;2023-03-21T07:06:19;10.80;99.90
15455;DHT22;21057;51.024;7.540;2023-03-21T07:08:49;10.90;99.90
15455;DHT22;21057;51.024;7.540;2023-03-21T07:11:17;10.80;99.90
15455;DHT22;21057;51.024;7.540;2023-03-21T07:13:45;10.80;99.90
15455;DHT22;21057;51.024;7.540;2023-03-21T07:16:13;10.70;99.90
15455;DHT22;21057;51.024;7.540;2023-03-21T07:18:44;10.70;99.90
15455;DHT22;21057;51.024;7.540;2023-03-21T07:21:20;10.80;99.90
15455;DHT22;21057;51.024;7.540;2023-03-21T07:23:49;10.70;99.90
15455;DHT22;21057;51.024;7.540;2023-03-21T07:26:21;10.60;99.90
15455;DHT22;21057;51.024;7.540;2023-03-21T07:28:48;10.70;99.90
15455;DHT22;21057;51.024;7.540;2023-03-21T07:31:19;10.80;99.90
15455;DHT22;21057;51.024;7.540;2023-03-21T07:33:54;10.90;99.90
15455;DHT22;21057;51.024;7.540;2023-03-21T07:36:23;10.90;99.90
15455;DHT22;21057;51.024;7.540;2023-03-21T07:38:50;11.00;99.90
15455;DHT22;21057;51.024;7.540;2023-03-21T07:41:32;10.90;99.90
15455;DHT22;21057;51.024;7.540;2023-03-21T07:43:59;11.00;99.90
15455;DHT22;21057;51.024;7.540;2023-03-21T07:46:34;11.20;99.90
15455;DHT22;21057;51.024;7.540;2023-03-21T07:49:03;10.90;99.90
15455;DHT22;21057;51.024;7.540;2023-03-21T07:51:32;11.00;99.90
15455;DHT22;21057;51.024;7.540;2023-03-21T07:54:05;11.00;99.90
15455;DHT22;21057;51.024;7.540;2023-03-21T07:56:47;11.10;99.90
15455;DHT22;21057;51.024;7.540;2023-03-21T07:59:16;11.10;99.90
15455;DHT22;21057;51.024;7.540;2023-03-21T08:01:43;11.30;99.90
15455;DHT22;21057;51.024;7.540;2023-03-21T08:04:10;11.40;99.90
15455;DHT22;21057;51.024;7.540;2023-03-21T08:06:38;11.50;99.90
15455;DHT22;21057;51.024;7.540;2023-03-21T08:09:05;11.50;99.90
15455;DHT22;21057;51.024;7.540;2023-03-21T08:11:32;11.60;99.90
15455;DHT22;21057;51.024;7.540;2023-03-21T08:14:00;11.60;99.90
15455;DHT22;21057;51.024;7.540;2023-03-21T08:16:28;11.60;99.90
15455;DHT22;21057;51.024;7.540;2023-03-21T08:19:00;11.50;99.90
15455;DHT22;21057;51.024;7.540;2023-03-21T08:21:30;11.60;99.90
15455;DHT22;21057;51.024;7.540;2023-03-21T08:24:10;11.60;99.90
15455;DHT22;21057;51.024;7.540;2023-03-21T08:26:37;11.60;99.90
15455;DHT22;21057;51.024;7.540;2023-03-21T08:29:05;11.60;99.90
15455;DHT22;21057;51.024;7.540;2023-03-21T08:31:38;11.60;99.90
15455;DHT22;21057;51.024;7.540;2023-03-21T08:34:05;11.60;99.90
15455;DHT22;21057;51.024;7.540;2023-03-21T08:36:43;11.50;99.90
15455;DHT22;21057;51.024;7.540;2023-03-21T08:39:09;11.20;99.90
15455;DHT22;21057;51.024;7.540;2023-03-21T08:41:37;11.20;99.90
15455;DHT22;21057;51.024;7.540;2023-03-21T08:44:05;11.20;99.90
15455;DHT22;21057;51.024;7.540;2023-03-21T08:46:32;11.20;99.90
15455;DHT22;21057;51.024;7.540;2023-03-21T08:48:59;11.20;99.90
15455;DHT22;21057;51.024;7.540;2023-03-21T08:51:41;11.30;99.90
15455;DHT22;21057;51.024;7.540;2023-03-21T08:54:17;11.40;99.90
15455;DHT22;21057;51.024;7.540;2023-03-21T08:56:48;11.40;99.90
15455;DHT22;21057;51.024;7.540;2023-03-21T08:59:16;11.40;99.90
15455;DHT22;21057;51.024;7.540;2023-03-21T09:01:43;11.50;99.90
15455;DHT22;21057;51.024;7.540;2023-03-21T09:04:11;11.50;99.90
15455;DHT22;21057;51.024;7.540;2023-03-21T09:06:38;11.40;99.90
15455;DHT22;21057;51.024;7.540;2023-03-21T09:09:11;11.40;99.90
15455;DHT22;21057;51.024;7.540;2023-03-21T09:11:38;11.60;99.90
15455;DHT22;21057;51.024;7.540;2023-03-21T09:14:05;11.50;99.90
15455;DHT22;21057;51.024;7.540;2023-03-21T09:16:33;11.60;99.90
15455;DHT22;21057;51.024;7.540;2023-03-21T09:19:00;11.60;99.90
15455;DHT22;21057;51.024;7.540;2023-03-21T09:21:37;11.90;99.90
15455;DHT22;21057;51.024;7.540;2023-03-21T09:24:04;11.80;99.90
15455;DHT22;21057;51.024;7.540;2023-03-21T09:26:32;12.00;99.90
15455;DHT22;21057;51.024;7.540;2023-03-21T09:28:59;11.80;99.90
15455;DHT22;21057;51.024;7.540;2023-03-21T09:31:27;11.90;99.90
15455;DHT22;21057;51.024;7.540;2023-03-21T09:33:56;11.90;99.90
15455;DHT22;21057;51.024;7.540;2023-03-21T09:36:24;12.00;99.90
15455;DHT22;21057;51.024;7.540;2023-03-21T09:38:52;12.00;99.90
15455;DHT22;21057;51.024;7.540;2023-03-21T09:41:38;11.80;99.90
15455;DHT22;21057;51.024;7.540;2023-03-21T09:44:33;11.80;99.90
15455;DHT22;21057;51.024;7.540;2023-03-21T09:47:04;11.50;99.90
15455;DHT22;21057;51.024;7.540;2023-03-21T09:49:48;11.60;99.90
15455;DHT22;21057;51.024;7.540;2023-03-21T09:52:19;11.70;99.90
15455;DHT22;21057;51.024;7.540;2023-03-21T09:54:48;11.70;99.90
15455;DHT22;21057;51.024;7.540;2023-03-21T09:57:29;11.80;99.90
15455;DHT22;21057;51.024;7.540;2023-03-21T09:59:58;11.90;99.90
15455;DHT22;21057;51.024;7.540;2023-03-21T10:02:35;12.00;99.90
15455;DHT22;21057;51.024;7.540;2023-03-21T10:05:11;12.20;99.90
15455;DHT22;21057;51.024;7.540;2023-03-21T10:07:41;12.10;99.90
15455;DHT22;21057;51.024;7.540;2023-03-21T10:10:15;11.90;99.90
15455;DHT22;21057;51.024;7.540;2023-03-21T10:12:44;12.00;99.90
15455;DHT22;21057;51.024;7.540;2023-03-21T10:15:15;12.10;99.90
15455;DHT22;21057;51.024;7.540;2023-03-21T10:17:45;12.00;99.90
15455;DHT22;21057;51.024;7.540;2023-03-21T10:20:18;12.00;99.90
15455;DHT22;21057;51.024;7.540;2023-03-21T10:22:51;12.00;99.90
15455;DHT22;21057;51.024;7.540;2023-03-21T10:25:23;12.00;99.90
15455;DHT22;21057;51.024;7.540;2023-03-21T10:27:52;11.90;99.90
15455;DHT22;21057;51.024;7.540;2023-03-21T10:30:25;11.90;99.90
15455;DHT22;21057;51.024;7.540;2023-03-21T10:32:55;11.90;99.90
15455;DHT22;21057;51.024;7.540;2023-03-21T10:35:28;11.70;99.90
15455;DHT22;21057;51.024;7.540;2023-03-21T10:37:58;11.80;99.90
15455;DHT22;21057;51.024;7.540;2023-03-21T10:40:26;11.70;99.90
15455;DHT22;21057;51.024;7.540;2023-03-21T10:42:54;11.70;99.90
15455;DHT22;21057;51.024;7.540;2023-03-21T10:45:26;11.70;99.90
15455;DHT22;21057;51.024;7.540;2023-03-21T10:47:52;11.80;99.90
15455;DHT22;21057;51.024;7.540;2023-03-21T10:50:29;12.00;99.90
15455;DHT22;21057;51.024;7.540;2023-03-21T10:52:59;12.10;99.90
15455;DHT22;21057;51.024;7.540;2023-03-21T10:55:28;12.00;99.90
15455;DHT22;21057;51.024;7.540;2023-03-21T10:58:00;11.90;99.90
15455;DHT22;21057;51.024;7.540;2023-03-21T11:00:36;12.00;99.90
15455;DHT22;21057;51.024;7.540;2023-03-21T11:03:04;11.80;99.90
15455;DHT22;21057;51.024;7.540;2023-03-21T11:05:38;11.80;99.90
15455;DHT22;21057;51.024;7.540;2023-03-21T11:08:09;12.00;99.90
15455;DHT22;21057;51.024;7.540;2023-03-21T11:10:53;12.00;99.90
15455;DHT22;21057;51.024;7.540;2023-03-21T11:13:24;11.90;99.90
15455;DHT22;21057;51.024;7.540;2023-03-21T11:15:54;12.10;99.90
15455;DHT22;21057;51.024;7.540;2023-03-21T11:18:23;12.10;99.90
15455;DHT22;21057;51.024;7.540;2023-03-21T11:20:53;12.10;99.90
15455;DHT22;21057;51.024;7.540;2023-03-21T11:23:25;12.10;99.90
15455;DHT22;21057;51.024;7.540;2023-03-21T11:26:01;12.10;99.90
15455;DHT22;21057;51.024;7.540;2023-03-21T11:28:34;12.20;99.90
15455;DHT22;21057;51.024;7.540;2023-03-21T11:31:10;12.20;99.90
15455;DHT22;21057;51.024;7.540;2023-03-21T11:33:51;12.30;99.90
15455;DHT22;21057;51.024;7.540;2023-03-21T11:36:32;12.40;99.90
15455;DHT22;21057;51.024;7.540;2023-03-21T11:39:12;12.50;99.90
15455;DHT22;21057;51.024;7.540;2023-03-21T11:41:47;12.60;99.90
15455;DHT22;21057;51.024;7.540;2023-03-21T11:44:32;12.50;99.90
15455;DHT22;21057;51.024;7.540;2023-03-21T11:47:14;12.70;99.90
15455;DHT22;21057;51.024;7.540;2023-03-21T11:49:45;12.80;99.90
15455;DHT22;21057;51.024;7.540;2023-03-21T11:52:24;12.80;99.90
15455;DHT22;21057;51.024;7.540;2023-03-21T11:55:14;12.80;99.90
15455;DHT22;21057;51.024;7.540;2023-03-21T11:58:02;12.70;99.90
15455;DHT22;21057;51.024;7.540;2023-03-21T12:00:37;12.50;99.90
15455;DHT22;21057;51.024;7.540;2023-03-21T12:06:40;12.30;99.90
15455;DHT22;21057;51.024;7.540;2023-03-21T12:09:32;12.40;99.90
15455;DHT22;21057;51.024;7.540;2023-03-21T12:12:11;12.30;99.90
15455;DHT22;21057;51.024;7.540;2023-03-21T12:14:55;12.50;99.90
15455;DHT22;21057;51.024;7.540;2023-03-21T12:17:51;12.80;99.90
15455;DHT22;21057;51.024;7.540;2023-03-21T12:20:38;13.00;99.90
15455;DHT22;21057;51.024;7.540;2023-03-21T12:23:27;12.70;99.90
15455;DHT22;21057;51.024;7.540;2023-03-21T12:26:09;12.30;99.90
15455;DHT22;21057;51.024;7.540;2023-03-21T12:28:51;12.30;99.90
15455;DHT22;21057;51.024;7.540;2023-03-21T12:31:35;12.30;99.90
15455;DHT22;21057;51.024;7.540;2023-03-21T12:34:15;12.40;99.90
15455;DHT22;21057;51.024;7.540;2023-03-21T12:37:08;12.80;99.90
15455;DHT22;21057;51.024;7.540;2023-03-21T12:39:47;12.70;99.90
15455;DHT22;21057;51.024;7.540;2023-03-21T12:42:55;12.50;99.90
15455;DHT22;21057;51.024;7.540;2023-03-21T12:45:29;12.60;99.90
15455;DHT22;21057;51.024;7.540;2023-03-21T12:48:10;12.40;99.90
15455;DHT22;21057;51.024;7.540;2023-03-21T12:50:54;12.10;99.90
15455;DHT22;21057;51.024;7.540;2023-03-21T12:53:46;12.20;99.90
15455;DHT22;21057;51.024;7.540;2023-03-21T12:56:30;12.10;99.90
15455;DHT22;21057;51.024;7.540;2023-03-21T13:02:22;12.10;99.90
15455;DHT22;21057;51.024;7.540;2023-03-21T13:05:03;12.30;99.90
15455;DHT22;21057;51.024;7.540;2023-03-21T13:07:34;12.30;99.90
15455;DHT22;21057;51.024;7.540;2023-03-21T13:10:20;12.40;99.90
15455;DHT22;21057;51.024;7.540;2023-03-21T13:12:57;12.30;99.90
15455;DHT22;21057;51.024;7.540;2023-03-21T13:15:46;12.30;99.90
15455;DHT22;21057;51.024;7.540;2023-03-21T13:18:28;12.10;99.90
15455;DHT22;21057;51.024;7.540;2023-03-21T13:21:16;12.10;99.90
15455;DHT22;21057;51.024;7.540;2023-03-21T13:26:57;11.90;99.90
15455;DHT22;21057;51.024;7.540;2023-03-21T13:29:30;11.90;99.90
15455;DHT22;21057;51.024;7.540;2023-03-21T13:32:24;11.80;99.90
15455;DHT22;21057;51.024;7.540;2023-03-21T13:34:54;11.80;99.90
15455;DHT22;21057;51.024;7.540;2023-03-21T13:37:22;11.60;99.90
15455;DHT22;21057;51.024;7.540;2023-03-21T13:39:58;11.90;99.90
15455;DHT22;21057;51.024;7.540;2023-03-21T13:42:33;12.00;99.90
15455;DHT22;21057;51.024;7.540;2023-03-21T13:45:10;12.30;99.90
15455;DHT22;21057;51.024;7.540;2023-03-21T13:47:53;12.40;99.90
15455;DHT22;21057;51.024;7.540;2023-03-21T13:50:52;12.40;99.90
15455;DHT22;21057;51.024;7.540;2023-03-21T13:53:38;12.30;99.90
15455;DHT22;21057;51.024;7.540;2023-03-21T13:56:19;12.20;99.90
15455;DHT22;21057;51.024;7.540;2023-03-21T13:59:09;12.30;99.90
15455;DHT22;21057;51.024;7.540;2023-03-21T14:01:59;12.50;99.90
15455;DHT22;21057;51.024;7.540;2023-03-21T14:04:30;12.50;99.90
15455;DHT22;21057;51.024;7.540;2023-03-21T14:07:08;12.40;99.90
15455;DHT22;21057;51.024;7.540;2023-03-21T14:09:39;12.30;99.90
15455;DHT22;21057;51.024;7.540;2023-03-21T14:12:13;12.20;99.90
15455;DHT22;21057;51.024;7.540;2023-03-21T14:14:43;12.10;99.90
15455;DHT22;21057;51.024;7.540;2023-03-21T14:17:12;12.10;99.90
15455;DHT22;21057;51.024;7.540;2023-03-21T14:19:41;12.10;99.90
15455;DHT22;21057;51.024;7.540;2023-03-21T14:22:10;12.00;99.90
15455;DHT22;21057;51.024;7.540;2023-03-21T14:24:45;11.70;99.90
15455;DHT22;21057;51.024;7.540;2023-03-21T14:27:15;11.80;99.90
15455;DHT22;21057;51.024;7.540;2023-03-21T14:29:51;11.90;99.90
15455;DHT22;21057;51.024;7.540;2023-03-21T14:32:28;11.90;99.90
15455;DHT22;21057;51.024;7.540;2023-03-21T14:35:00;12.00;99.90
15455;DHT22;21057;51.024;7.540;2023-03-21T14:37:29;12.30;99.90
15455;DHT22;21057;51.024;7.540;2023-03-21T14:40:07;12.40;99.90
15455;DHT22;21057;51.024;7.540;2023-03-21T14:42:45;12.40;99.90
15455;DHT22;21057;51.024;7.540;2023-03-21T14:45:22;12.50;99.90
15455;DHT22;21057;51.024;7.540;2023-03-21T14:48:00;12.50;99.90
15455;DHT22;21057;51.024;7.540;2023-03-21T14:50:39;12.60;99.90
15455;DHT22;21057;51.024;7.540;2023-03-21T14:53:14;12.70;99.90
15455;DHT22;21057;51.024;7.540;2023-03-21T14:55:55;12.50;99.90
15455;DHT22;21057;51.024;7.540;2023-03-21T14:58:23;12.30;99.90
15455;DHT22;21057;51.024;7.540;2023-03-21T15:00:55;12.10;99.90
15455;DHT22;21057;51.024;7.540;2023-03-21T15:03:46;12.30;99.90
15455;DHT22;21057;51.024;7.540;2023-03-21T15:06:17;12.40;99.90
15455;DHT22;21057;51.024;7.540;2023-03-21T15:11:40;12.40;99.90
15455;DHT22;21057;51.024;7.540;2023-03-21T15:14:12;12.50;99.90
15455;DHT22;21057;51.024;7.540;2023-03-21T15:16:42;12.60;99.90
15455;DHT22;21057;51.024;7.540;2023-03-21T15:19:15;12.70;99.90
15455;DHT22;21057;51.024;7.540;2023-03-21T15:21:47;12.60;99.90
15455;DHT22;21057;51.024;7.540;2023-03-21T15:24:36;12.80;99.90
15455;DHT22;21057;51.024;7.540;2023-03-21T15:27:13;12.80;99.90
15455;DHT22;21057;51.024;7.540;2023-03-21T15:29:43;12.70;99.90
15455;DHT22;21057;51.024;7.540;2023-03-21T15:32:20;12.70;99.90
15455;DHT22;21057;51.024;7.540;2023-03-21T15:34:53;12.80;99.90
15455;DHT22;21057;51.024;7.540;2023-03-21T15:37:26;12.90;99.90
15455;DHT22;21057;51.024;7.540;2023-03-21T15:40:06;13.00;99.90
15455;DHT22;21057;51.024;7.540;2023-03-21T15:42:39;12.80;99.90
15455;DHT22;21057;51.024;7.540;2023-03-21T15:45:16;12.90;99.90
15455;DHT22;21057;51.024;7.540;2023-03-21T15:47:53;12.90;99.90
15455;DHT22;21057;51.024;7.540;2023-03-21T15:50:33;12.80;99.90
15455;DHT22;21057;51.024;7.540;2023-03-21T15:53:14;12.90;99.90
15455;DHT22;21057;51.024;7.540;2023-03-21T15:55:44;13.20;99.90
15455;DHT22;21057;51.024;7.540;2023-03-21T15:58:16;13.60;99.90
15455;DHT22;21057;51.024;7.540;2023-03-21T16:00:48;13.70;99.90
15455;DHT22;21057;51.024;7.540;2023-03-21T16:03:19;13.70;99.90
15455;DHT22;21057;51.024;7.540;2023-03-21T16:06:05;13.50;99.90
15455;DHT22;21057;51.024;7.540;2023-03-21T16:08:44;13.40;99.90
15455;DHT22;21057;51.024;7.540;2023-03-21T16:11:16;13.40;99.90
15455;DHT22;21057;51.024;7.540;2023-03-21T16:13:43;13.20;99.90
15455;DHT22;21057;51.024;7.540;2023-03-21T16:16:20;13.40;99.90
15455;DHT22;21057;51.024;7.540;2023-03-21T16:18:49;13.20;99.90
15455;DHT22;21057;51.024;7.540;2023-03-21T16:21:24;13.20;99.90
15455;DHT22;21057;51.024;7.540;2023-03-21T16:23:59;13.20;99.90
15455;DHT22;21057;51.024;7.540;2023-03-21T16:26:29;13.50;99.90
15455;DHT22;21057;51.024;7.540;2023-03-21T16:28:57;13.60;99.90